sensor_id;sensor_type;location;lat;lon;timestamp;P1;durP1;ratioP1;P2;durP2;ratioP2
34064;SDS011;20339;49.754;20.158;2022-08-21T00:01:09;11.50;;;8.70;;
34064;SDS011;20339;49.754;20.158;2022-08-21T00:03:47;12.50;;;8.60;;
34064;SDS011;20339;49.754;20.158;2022-08-21T00:06:16;12.00;;;9.10;;
34064;SDS011;20339;49.754;20.158;2022-08-21T00:08:46;13.10;;;8.80;;
34064;SDS011;20339;49.754;20.158;2022-08-21T00:11:15;10.80;;;8.90;;
34064;SDS011;20339;49.754;20.158;2022-08-21T00:13:48;11.40;;;8.80;;
34064;SDS011;20339;49.754;20.158;2022-08-21T00:16:16;12.00;;;9.20;;
34064;SDS011;20339;49.754;20.158;2022-08-21T00:18:45;12.20;;;8.50;;
34064;SDS011;20339;49.754;20.158;2022-08-21T00:21:13;12.00;;;8.70;;
34064;SDS011;20339;49.754;20.158;2022-08-21T00:23:42;12.00;;;8.70;;
34064;SDS011;20339;49.754;20.158;2022-08-21T00:26:11;13.50;;;9.20;;
34064;SDS011;20339;49.754;20.158;2022-08-21T00:28:40;11.60;;;8.90;;
34064;SDS011;20339;49.754;20.158;2022-08-21T00:31:09;12.30;;;9.20;;
34064;SDS011;20339;49.754;20.158;2022-08-21T00:33:37;11.40;;;8.90;;
34064;SDS011;20339;49.754;20.158;2022-08-21T00:36:07;11.30;;;9.10;;
34064;SDS011;20339;49.754;20.158;2022-08-21T00:38:37;12.50;;;8.90;;
34064;SDS011;20339;49.754;20.158;2022-08-21T00:41:06;13.00;;;9.00;;
34064;SDS011;20339;49.754;20.158;2022-08-21T00:43:37;11.30;;;8.10;;
34064;SDS011;20339;49.754;20.158;2022-08-21T00:46:06;11.10;;;9.00;;
34064;SDS011;20339;49.754;20.158;2022-08-21T00:48:35;10.50;;;8.20;;
34064;SDS011;20339;49.754;20.158;2022-08-21T00:51:05;9.70;;;8.60;;
34064;SDS011;20339;49.754;20.158;2022-08-21T00:53:38;12.70;;;8.70;;
34064;SDS011;20339;49.754;20.158;2022-08-21T00:56:09;13.00;;;8.90;;
34064;SDS011;20339;49.754;20.158;2022-08-21T00:58:39;12.10;;;9.70;;
34064;SDS011;20339;49.754;20.158;2022-08-21T01:01:10;11.60;;;9.00;;
34064;SDS011;20339;49.754;20.158;2022-08-21T01:03:39;11.20;;;8.60;;
34064;SDS011;20339;49.754;20.158;2022-08-21T01:06:08;9.70;;;8.40;;
34064;SDS011;20339;49.754;20.158;2022-08-21T01:08:37;11.40;;;9.10;;
34064;SDS011;20339;49.754;20.158;2022-08-21T01:11:06;10.60;;;9.30;;
34064;SDS011;20339;49.754;20.158;2022-08-21T01:13:36;10.10;;;8.20;;
34064;SDS011;20339;49.754;20.158;2022-08-21T01:16:13;13.10;;;8.70;;
34064;SDS011;20339;49.754;20.158;2022-08-21T01:18:46;11.00;;;8.60;;
34064;SDS011;20339;49.754;20.158;2022-08-21T01:21:16;10.30;;;8.40;;
34064;SDS011;20339;49.754;20.158;2022-08-21T01:23:47;11.40;;;8.50;;
34064;SDS011;20339;49.754;20.158;2022-08-21T01:26:20;12.60;;;8.90;;
34064;SDS011;20339;49.754;20.158;2022-08-21T01:28:54;12.90;;;9.40;;
34064;SDS011;20339;49.754;20.158;2022-08-21T01:31:27;11.90;;;9.30;;
34064;SDS011;20339;49.754;20.158;2022-08-21T01:33:58;11.70;;;8.60;;
34064;SDS011;20339;49.754;20.158;2022-08-21T01:36:27;11.00;;;8.40;;
34064;SDS011;20339;49.754;20.158;2022-08-21T01:38:56;9.20;;;8.00;;
34064;SDS011;20339;49.754;20.158;2022-08-21T01:41:25;11.20;;;8.90;;
34064;SDS011;20339;49.754;20.158;2022-08-21T01:43:53;11.10;;;8.10;;
34064;SDS011;20339;49.754;20.158;2022-08-21T01:46:21;10.50;;;8.10;;
34064;SDS011;20339;49.754;20.158;2022-08-21T01:48:50;10.60;;;8.20;;
34064;SDS011;20339;49.754;20.158;2022-08-21T01:51:18;9.20;;;7.80;;
34064;SDS011;20339;49.754;20.158;2022-08-21T01:53:47;10.00;;;8.30;;
34064;SDS011;20339;49.754;20.158;2022-08-21T01:56:16;10.80;;;8.00;;
34064;SDS011;20339;49.754;20.158;2022-08-21T01:58:46;10.60;;;8.70;;
34064;SDS011;20339;49.754;20.158;2022-08-21T02:01:15;9.80;;;8.30;;
34064;SDS011;20339;49.754;20.158;2022-08-21T02:03:43;11.10;;;8.00;;
34064;SDS011;20339;49.754;20.158;2022-08-21T02:06:13;10.70;;;8.40;;
34064;SDS011;20339;49.754;20.158;2022-08-21T02:08:44;9.10;;;7.30;;
34064;SDS011;20339;49.754;20.158;2022-08-21T02:11:14;12.20;;;8.20;;
34064;SDS011;20339;49.754;20.158;2022-08-21T02:13:42;9.10;;;7.80;;
34064;SDS011;20339;49.754;20.158;2022-08-21T02:16:13;9.90;;;8.60;;
34064;SDS011;20339;49.754;20.158;2022-08-21T02:18:42;9.60;;;7.70;;
34064;SDS011;20339;49.754;20.158;2022-08-21T02:21:12;11.40;;;8.10;;
34064;SDS011;20339;49.754;20.158;2022-08-21T02:23:40;8.40;;;7.50;;
34064;SDS011;20339;49.754;20.158;2022-08-21T02:26:09;11.10;;;8.00;;
34064;SDS011;20339;49.754;20.158;2022-08-21T02:28:40;9.90;;;7.80;;
34064;SDS011;20339;49.754;20.158;2022-08-21T02:31:09;9.20;;;7.40;;
34064;SDS011;20339;49.754;20.158;2022-08-21T02:33:38;11.00;;;7.80;;
34064;SDS011;20339;49.754;20.158;2022-08-21T02:36:08;11.60;;;8.10;;
34064;SDS011;20339;49.754;20.158;2022-08-21T02:38:38;9.30;;;7.60;;
34064;SDS011;20339;49.754;20.158;2022-08-21T02:43:37;10.20;;;7.80;;
34064;SDS011;20339;49.754;20.158;2022-08-21T02:46:06;13.50;;;8.60;;
34064;SDS011;20339;49.754;20.158;2022-08-21T02:48:36;10.40;;;7.90;;
34064;SDS011;20339;49.754;20.158;2022-08-21T02:51:07;11.20;;;8.80;;
34064;SDS011;20339;49.754;20.158;2022-08-21T02:53:37;10.30;;;8.80;;
34064;SDS011;20339;49.754;20.158;2022-08-21T02:56:06;9.40;;;8.30;;
34064;SDS011;20339;49.754;20.158;2022-08-21T02:58:37;12.90;;;7.70;;
34064;SDS011;20339;49.754;20.158;2022-08-21T03:01:07;11.80;;;8.70;;
34064;SDS011;20339;49.754;20.158;2022-08-21T03:03:37;11.80;;;8.40;;
34064;SDS011;20339;49.754;20.158;2022-08-21T03:06:08;11.70;;;8.00;;
34064;SDS011;20339;49.754;20.158;2022-08-21T03:08:38;10.70;;;7.90;;
34064;SDS011;20339;49.754;20.158;2022-08-21T03:11:07;9.90;;;8.00;;
34064;SDS011;20339;49.754;20.158;2022-08-21T03:13:36;12.50;;;9.00;;
34064;SDS011;20339;49.754;20.158;2022-08-21T03:16:05;10.80;;;8.10;;
34064;SDS011;20339;49.754;20.158;2022-08-21T03:18:34;10.00;;;8.10;;
34064;SDS011;20339;49.754;20.158;2022-08-21T03:21:03;10.50;;;8.20;;
34064;SDS011;20339;49.754;20.158;2022-08-21T03:23:32;11.00;;;8.40;;
34064;SDS011;20339;49.754;20.158;2022-08-21T03:26:01;9.50;;;8.50;;
34064;SDS011;20339;49.754;20.158;2022-08-21T03:28:29;10.40;;;9.10;;
34064;SDS011;20339;49.754;20.158;2022-08-21T03:30:59;13.10;;;9.80;;
34064;SDS011;20339;49.754;20.158;2022-08-21T03:33:27;14.20;;;10.80;;
34064;SDS011;20339;49.754;20.158;2022-08-21T03:35:58;14.50;;;10.80;;
34064;SDS011;20339;49.754;20.158;2022-08-21T03:38:28;11.80;;;10.50;;
34064;SDS011;20339;49.754;20.158;2022-08-21T03:43:26;13.60;;;10.80;;
34064;SDS011;20339;49.754;20.158;2022-08-21T03:45:55;12.50;;;10.60;;
34064;SDS011;20339;49.754;20.158;2022-08-21T03:48:24;12.20;;;9.90;;
34064;SDS011;20339;49.754;20.158;2022-08-21T03:50:53;12.90;;;9.30;;
34064;SDS011;20339;49.754;20.158;2022-08-21T03:53:21;11.40;;;8.90;;
34064;SDS011;20339;49.754;20.158;2022-08-21T03:55:50;11.40;;;10.00;;
34064;SDS011;20339;49.754;20.158;2022-08-21T03:58:20;11.90;;;9.30;;
34064;SDS011;20339;49.754;20.158;2022-08-21T04:00:54;10.40;;;8.40;;
34064;SDS011;20339;49.754;20.158;2022-08-21T04:03:23;10.60;;;8.40;;
34064;SDS011;20339;49.754;20.158;2022-08-21T04:05:53;10.80;;;9.20;;
34064;SDS011;20339;49.754;20.158;2022-08-21T04:08:22;10.60;;;9.10;;
34064;SDS011;20339;49.754;20.158;2022-08-21T04:10:51;11.70;;;9.00;;
34064;SDS011;20339;49.754;20.158;2022-08-21T04:13:24;15.20;;;11.20;;
34064;SDS011;20339;49.754;20.158;2022-08-21T04:15:55;13.40;;;12.00;;
34064;SDS011;20339;49.754;20.158;2022-08-21T04:18:25;15.10;;;12.60;;
34064;SDS011;20339;49.754;20.158;2022-08-21T04:20:53;15.20;;;13.00;;
34064;SDS011;20339;49.754;20.158;2022-08-21T04:23:27;19.20;;;14.10;;
34064;SDS011;20339;49.754;20.158;2022-08-21T04:25:56;17.80;;;14.20;;
34064;SDS011;20339;49.754;20.158;2022-08-21T04:28:26;17.80;;;14.00;;
34064;SDS011;20339;49.754;20.158;2022-08-21T04:30:55;17.60;;;13.40;;
34064;SDS011;20339;49.754;20.158;2022-08-21T04:33:24;15.20;;;12.30;;
34064;SDS011;20339;49.754;20.158;2022-08-21T04:35:53;15.60;;;11.40;;
34064;SDS011;20339;49.754;20.158;2022-08-21T04:38:22;14.70;;;10.50;;
34064;SDS011;20339;49.754;20.158;2022-08-21T04:40:51;13.90;;;10.90;;
34064;SDS011;20339;49.754;20.158;2022-08-21T04:43:20;13.30;;;9.70;;
34064;SDS011;20339;49.754;20.158;2022-08-21T04:45:50;13.30;;;9.30;;
34064;SDS011;20339;49.754;20.158;2022-08-21T04:48:20;10.50;;;8.70;;
34064;SDS011;20339;49.754;20.158;2022-08-21T04:50:52;9.70;;;8.10;;
34064;SDS011;20339;49.754;20.158;2022-08-21T04:53:24;11.50;;;8.40;;
34064;SDS011;20339;49.754;20.158;2022-08-21T04:55:58;11.90;;;9.20;;
34064;SDS011;20339;49.754;20.158;2022-08-21T04:58:32;11.30;;;9.40;;
34064;SDS011;20339;49.754;20.158;2022-08-21T05:01:02;12.60;;;10.10;;
34064;SDS011;20339;49.754;20.158;2022-08-21T05:03:34;11.30;;;8.90;;
34064;SDS011;20339;49.754;20.158;2022-08-21T05:06:08;13.10;;;9.10;;
34064;SDS011;20339;49.754;20.158;2022-08-21T05:08:39;11.90;;;8.70;;
34064;SDS011;20339;49.754;20.158;2022-08-21T05:13:38;12.50;;;9.50;;
34064;SDS011;20339;49.754;20.158;2022-08-21T05:16:07;14.90;;;9.20;;
34064;SDS011;20339;49.754;20.158;2022-08-21T05:18:36;11.40;;;9.40;;
34064;SDS011;20339;49.754;20.158;2022-08-21T05:21:05;11.40;;;9.20;;
34064;SDS011;20339;49.754;20.158;2022-08-21T05:23:33;11.60;;;8.70;;
34064;SDS011;20339;49.754;20.158;2022-08-21T05:26:02;10.60;;;7.90;;
34064;SDS011;20339;49.754;20.158;2022-08-21T05:28:31;11.50;;;8.20;;
34064;SDS011;20339;49.754;20.158;2022-08-21T05:31:00;9.80;;;8.60;;
34064;SDS011;20339;49.754;20.158;2022-08-21T05:33:31;11.30;;;9.10;;
34064;SDS011;20339;49.754;20.158;2022-08-21T05:36:00;14.80;;;10.70;;
34064;SDS011;20339;49.754;20.158;2022-08-21T05:38:30;11.10;;;9.90;;
34064;SDS011;20339;49.754;20.158;2022-08-21T05:40:59;14.20;;;10.60;;
34064;SDS011;20339;49.754;20.158;2022-08-21T05:43:28;15.60;;;12.60;;
34064;SDS011;20339;49.754;20.158;2022-08-21T05:45:59;14.10;;;11.50;;
34064;SDS011;20339;49.754;20.158;2022-08-21T05:48:30;15.40;;;11.40;;
34064;SDS011;20339;49.754;20.158;2022-08-21T05:51:03;14.80;;;10.90;;
34064;SDS011;20339;49.754;20.158;2022-08-21T05:53:33;12.90;;;10.80;;
34064;SDS011;20339;49.754;20.158;2022-08-21T05:56:02;14.10;;;11.50;;
34064;SDS011;20339;49.754;20.158;2022-08-21T05:58:32;13.40;;;10.90;;
34064;SDS011;20339;49.754;20.158;2022-08-21T06:01:02;14.20;;;12.10;;
34064;SDS011;20339;49.754;20.158;2022-08-21T06:03:31;16.30;;;11.80;;
34064;SDS011;20339;49.754;20.158;2022-08-21T06:08:29;17.20;;;12.20;;
34064;SDS011;20339;49.754;20.158;2022-08-21T06:10:59;15.10;;;13.10;;
34064;SDS011;20339;49.754;20.158;2022-08-21T06:13:31;15.30;;;12.50;;
34064;SDS011;20339;49.754;20.158;2022-08-21T06:16:09;15.20;;;12.50;;
34064;SDS011;20339;49.754;20.158;2022-08-21T06:18:39;15.80;;;12.60;;
34064;SDS011;20339;49.754;20.158;2022-08-21T06:21:08;17.10;;;13.40;;
34064;SDS011;20339;49.754;20.158;2022-08-21T06:23:38;17.80;;;13.00;;
34064;SDS011;20339;49.754;20.158;2022-08-21T06:26:11;17.60;;;14.90;;
34064;SDS011;20339;49.754;20.158;2022-08-21T06:28:41;18.70;;;15.20;;
34064;SDS011;20339;49.754;20.158;2022-08-21T06:31:11;18.70;;;15.50;;
34064;SDS011;20339;49.754;20.158;2022-08-21T06:33:42;16.90;;;14.90;;
34064;SDS011;20339;49.754;20.158;2022-08-21T06:36:11;19.00;;;14.90;;
34064;SDS011;20339;49.754;20.158;2022-08-21T06:38:40;17.20;;;15.40;;
34064;SDS011;20339;49.754;20.158;2022-08-21T06:41:10;19.60;;;15.40;;
34064;SDS011;20339;49.754;20.158;2022-08-21T06:43:38;18.20;;;15.10;;
34064;SDS011;20339;49.754;20.158;2022-08-21T06:46:07;20.20;;;14.70;;
34064;SDS011;20339;49.754;20.158;2022-08-21T06:48:39;17.10;;;14.70;;
34064;SDS011;20339;49.754;20.158;2022-08-21T06:51:08;19.40;;;15.90;;
34064;SDS011;20339;49.754;20.158;2022-08-21T06:53:37;21.40;;;16.10;;
34064;SDS011;20339;49.754;20.158;2022-08-21T06:56:06;21.10;;;16.00;;
34064;SDS011;20339;49.754;20.158;2022-08-21T06:58:35;21.90;;;16.00;;
34064;SDS011;20339;49.754;20.158;2022-08-21T07:01:04;18.60;;;15.00;;
34064;SDS011;20339;49.754;20.158;2022-08-21T07:03:33;17.70;;;15.50;;
34064;SDS011;20339;49.754;20.158;2022-08-21T07:06:05;18.50;;;14.60;;
34064;SDS011;20339;49.754;20.158;2022-08-21T07:08:36;18.30;;;15.90;;
34064;SDS011;20339;49.754;20.158;2022-08-21T07:11:09;18.50;;;14.70;;
34064;SDS011;20339;49.754;20.158;2022-08-21T07:13:42;17.70;;;14.30;;
34064;SDS011;20339;49.754;20.158;2022-08-21T07:16:10;22.00;;;15.40;;
34064;SDS011;20339;49.754;20.158;2022-08-21T07:21:09;19.80;;;16.30;;
34064;SDS011;20339;49.754;20.158;2022-08-21T07:23:39;19.00;;;15.70;;
34064;SDS011;20339;49.754;20.158;2022-08-21T07:26:10;17.90;;;14.80;;
34064;SDS011;20339;49.754;20.158;2022-08-21T07:28:40;18.50;;;15.80;;
34064;SDS011;20339;49.754;20.158;2022-08-21T07:31:10;17.80;;;15.80;;
34064;SDS011;20339;49.754;20.158;2022-08-21T07:33:43;17.40;;;14.10;;
34064;SDS011;20339;49.754;20.158;2022-08-21T07:36:13;19.30;;;15.40;;
34064;SDS011;20339;49.754;20.158;2022-08-21T07:38:42;19.30;;;15.50;;
34064;SDS011;20339;49.754;20.158;2022-08-21T07:41:14;19.90;;;15.90;;
34064;SDS011;20339;49.754;20.158;2022-08-21T07:43:44;18.30;;;15.80;;
34064;SDS011;20339;49.754;20.158;2022-08-21T07:46:13;23.00;;;16.50;;
34064;SDS011;20339;49.754;20.158;2022-08-21T07:48:42;19.70;;;15.90;;
34064;SDS011;20339;49.754;20.158;2022-08-21T07:51:12;18.80;;;15.90;;
34064;SDS011;20339;49.754;20.158;2022-08-21T07:53:46;20.60;;;17.20;;
34064;SDS011;20339;49.754;20.158;2022-08-21T07:56:18;21.60;;;17.80;;
34064;SDS011;20339;49.754;20.158;2022-08-21T07:58:47;20.70;;;16.70;;
34064;SDS011;20339;49.754;20.158;2022-08-21T08:01:19;23.60;;;18.40;;
34064;SDS011;20339;49.754;20.158;2022-08-21T08:03:49;22.10;;;18.40;;
34064;SDS011;20339;49.754;20.158;2022-08-21T08:06:18;22.60;;;17.90;;
34064;SDS011;20339;49.754;20.158;2022-08-21T08:08:47;24.70;;;19.00;;
34064;SDS011;20339;49.754;20.158;2022-08-21T08:11:18;23.60;;;19.10;;
34064;SDS011;20339;49.754;20.158;2022-08-21T08:13:49;22.00;;;18.00;;
34064;SDS011;20339;49.754;20.158;2022-08-21T08:16:20;26.10;;;18.90;;
34064;SDS011;20339;49.754;20.158;2022-08-21T08:18:53;22.20;;;18.00;;
34064;SDS011;20339;49.754;20.158;2022-08-21T08:21:25;24.30;;;19.50;;
34064;SDS011;20339;49.754;20.158;2022-08-21T08:23:55;23.90;;;19.30;;
34064;SDS011;20339;49.754;20.158;2022-08-21T08:26:26;23.00;;;17.40;;
34064;SDS011;20339;49.754;20.158;2022-08-21T08:28:56;25.30;;;21.90;;
34064;SDS011;20339;49.754;20.158;2022-08-21T08:31:27;24.70;;;20.40;;
34064;SDS011;20339;49.754;20.158;2022-08-21T08:33:56;27.90;;;22.70;;
34064;SDS011;20339;49.754;20.158;2022-08-21T08:36:32;23.90;;;19.60;;
34064;SDS011;20339;49.754;20.158;2022-08-21T08:39:04;20.90;;;18.70;;
34064;SDS011;20339;49.754;20.158;2022-08-21T08:41:35;22.90;;;19.00;;
34064;SDS011;20339;49.754;20.158;2022-08-21T08:44:05;23.60;;;18.90;;
34064;SDS011;20339;49.754;20.158;2022-08-21T08:49:09;25.70;;;18.90;;
34064;SDS011;20339;49.754;20.158;2022-08-21T08:51:44;23.60;;;21.00;;
34064;SDS011;20339;49.754;20.158;2022-08-21T08:54:19;30.20;;;22.20;;
34064;SDS011;20339;49.754;20.158;2022-08-21T08:56:59;27.30;;;21.60;;
34064;SDS011;20339;49.754;20.158;2022-08-21T08:59:32;24.20;;;20.30;;
34064;SDS011;20339;49.754;20.158;2022-08-21T09:02:07;26.30;;;23.00;;
34064;SDS011;20339;49.754;20.158;2022-08-21T09:04:39;29.20;;;24.10;;
34064;SDS011;20339;49.754;20.158;2022-08-21T09:07:12;38.30;;;27.40;;
34064;SDS011;20339;49.754;20.158;2022-08-21T09:09:51;35.80;;;27.70;;
34064;SDS011;20339;49.754;20.158;2022-08-21T09:12:33;32.80;;;26.70;;
34064;SDS011;20339;49.754;20.158;2022-08-21T09:15:09;33.80;;;26.50;;
34064;SDS011;20339;49.754;20.158;2022-08-21T09:17:54;30.90;;;27.40;;
34064;SDS011;20339;49.754;20.158;2022-08-21T09:20:40;34.30;;;28.50;;
34064;SDS011;20339;49.754;20.158;2022-08-21T09:23:25;34.60;;;26.30;;
34064;SDS011;20339;49.754;20.158;2022-08-21T09:26:06;34.90;;;29.00;;
34064;SDS011;20339;49.754;20.158;2022-08-21T09:28:40;34.50;;;28.10;;
34064;SDS011;20339;49.754;20.158;2022-08-21T09:31:21;39.10;;;29.50;;
34064;SDS011;20339;49.754;20.158;2022-08-21T09:33:59;35.40;;;26.80;;
34064;SDS011;20339;49.754;20.158;2022-08-21T09:36:31;35.70;;;28.30;;
34064;SDS011;20339;49.754;20.158;2022-08-21T09:39:04;39.30;;;30.20;;
34064;SDS011;20339;49.754;20.158;2022-08-21T09:41:35;40.00;;;30.20;;
34064;SDS011;20339;49.754;20.158;2022-08-21T09:44:05;41.40;;;31.30;;
34064;SDS011;20339;49.754;20.158;2022-08-21T09:46:36;41.00;;;29.50;;
34064;SDS011;20339;49.754;20.158;2022-08-21T09:49:05;37.50;;;30.20;;
34064;SDS011;20339;49.754;20.158;2022-08-21T09:51:34;37.90;;;31.00;;
34064;SDS011;20339;49.754;20.158;2022-08-21T09:54:12;40.90;;;30.60;;
34064;SDS011;20339;49.754;20.158;2022-08-21T10:00:07;44.00;;;35.10;;
34064;SDS011;20339;49.754;20.158;2022-08-21T10:02:38;41.10;;;32.80;;
34064;SDS011;20339;49.754;20.158;2022-08-21T10:05:08;44.20;;;33.50;;
34064;SDS011;20339;49.754;20.158;2022-08-21T10:07:50;46.40;;;33.50;;
34064;SDS011;20339;49.754;20.158;2022-08-21T10:10:21;41.30;;;32.00;;
34064;SDS011;20339;49.754;20.158;2022-08-21T10:12:53;43.10;;;32.80;;
34064;SDS011;20339;49.754;20.158;2022-08-21T10:15:36;46.40;;;34.80;;
34064;SDS011;20339;49.754;20.158;2022-08-21T10:18:16;42.40;;;33.40;;
34064;SDS011;20339;49.754;20.158;2022-08-21T10:20:54;47.10;;;35.40;;
34064;SDS011;20339;49.754;20.158;2022-08-21T10:23:38;42.60;;;32.70;;
34064;SDS011;20339;49.754;20.158;2022-08-21T10:26:24;39.60;;;30.60;;
34064;SDS011;20339;49.754;20.158;2022-08-21T10:29:05;41.20;;;30.10;;
34064;SDS011;20339;49.754;20.158;2022-08-21T10:31:44;40.60;;;31.60;;
34064;SDS011;20339;49.754;20.158;2022-08-21T10:34:25;39.60;;;31.10;;
34064;SDS011;20339;49.754;20.158;2022-08-21T10:37:07;38.00;;;30.30;;
34064;SDS011;20339;49.754;20.158;2022-08-21T10:39:49;38.30;;;32.80;;
34064;SDS011;20339;49.754;20.158;2022-08-21T10:42:31;41.80;;;35.00;;
34064;SDS011;20339;49.754;20.158;2022-08-21T10:45:15;42.00;;;34.50;;
34064;SDS011;20339;49.754;20.158;2022-08-21T10:47:53;40.10;;;31.40;;
34064;SDS011;20339;49.754;20.158;2022-08-21T10:50:29;45.20;;;32.60;;
34064;SDS011;20339;49.754;20.158;2022-08-21T10:53:19;42.80;;;31.90;;
34064;SDS011;20339;49.754;20.158;2022-08-21T10:56:02;39.40;;;31.30;;
34064;SDS011;20339;49.754;20.158;2022-08-21T10:58:44;36.40;;;30.00;;
34064;SDS011;20339;49.754;20.158;2022-08-21T11:01:18;43.50;;;31.10;;
34064;SDS011;20339;49.754;20.158;2022-08-21T11:03:58;39.40;;;32.70;;
34064;SDS011;20339;49.754;20.158;2022-08-21T11:06:40;44.00;;;33.80;;
34064;SDS011;20339;49.754;20.158;2022-08-21T11:09:15;35.00;;;29.70;;
34064;SDS011;20339;49.754;20.158;2022-08-21T11:11:49;38.30;;;31.90;;
34064;SDS011;20339;49.754;20.158;2022-08-21T11:14:24;41.40;;;32.80;;
34064;SDS011;20339;49.754;20.158;2022-08-21T11:17:08;39.10;;;30.90;;
34064;SDS011;20339;49.754;20.158;2022-08-21T11:19:40;37.30;;;29.70;;
34064;SDS011;20339;49.754;20.158;2022-08-21T11:22:15;37.80;;;32.70;;
34064;SDS011;20339;49.754;20.158;2022-08-21T11:24:54;34.10;;;29.90;;
34064;SDS011;20339;49.754;20.158;2022-08-21T11:27:28;33.80;;;29.10;;
34064;SDS011;20339;49.754;20.158;2022-08-21T11:30:07;33.10;;;28.70;;
34064;SDS011;20339;49.754;20.158;2022-08-21T11:32:51;37.80;;;29.00;;
34064;SDS011;20339;49.754;20.158;2022-08-21T11:35:32;35.30;;;27.60;;
34064;SDS011;20339;49.754;20.158;2022-08-21T11:38:10;28.40;;;23.20;;
34064;SDS011;20339;49.754;20.158;2022-08-21T11:40:54;28.40;;;22.70;;
34064;SDS011;20339;49.754;20.158;2022-08-21T11:43:38;25.90;;;20.20;;
34064;SDS011;20339;49.754;20.158;2022-08-21T11:46:13;24.40;;;17.70;;
34064;SDS011;20339;49.754;20.158;2022-08-21T11:48:51;20.80;;;16.90;;
34064;SDS011;20339;49.754;20.158;2022-08-21T11:51:30;19.60;;;14.90;;
34064;SDS011;20339;49.754;20.158;2022-08-21T11:54:07;16.50;;;13.00;;
34064;SDS011;20339;49.754;20.158;2022-08-21T11:56:43;13.00;;;10.30;;
34064;SDS011;20339;49.754;20.158;2022-08-21T11:59:20;14.20;;;10.90;;
34064;SDS011;20339;49.754;20.158;2022-08-21T12:01:57;14.40;;;10.90;;
34064;SDS011;20339;49.754;20.158;2022-08-21T12:04:28;13.60;;;10.10;;
34064;SDS011;20339;49.754;20.158;2022-08-21T12:07:11;13.70;;;10.10;;
34064;SDS011;20339;49.754;20.158;2022-08-21T12:09:51;13.10;;;10.70;;
34064;SDS011;20339;49.754;20.158;2022-08-21T12:12:26;17.90;;;12.70;;
34064;SDS011;20339;49.754;20.158;2022-08-21T12:15:06;12.80;;;10.20;;
34064;SDS011;20339;49.754;20.158;2022-08-21T12:17:52;12.00;;;9.30;;
34064;SDS011;20339;49.754;20.158;2022-08-21T12:20:37;14.30;;;11.70;;
34064;SDS011;20339;49.754;20.158;2022-08-21T12:23:18;16.70;;;13.10;;
34064;SDS011;20339;49.754;20.158;2022-08-21T12:26:03;14.50;;;11.00;;
34064;SDS011;20339;49.754;20.158;2022-08-21T12:29:04;13.70;;;12.20;;
34064;SDS011;20339;49.754;20.158;2022-08-21T12:31:48;15.30;;;12.40;;
34064;SDS011;20339;49.754;20.158;2022-08-21T12:34:23;17.20;;;13.70;;
34064;SDS011;20339;49.754;20.158;2022-08-21T12:36:57;16.40;;;13.40;;
34064;SDS011;20339;49.754;20.158;2022-08-21T12:39:30;19.00;;;12.00;;
34064;SDS011;20339;49.754;20.158;2022-08-21T12:42:03;14.50;;;11.60;;
34064;SDS011;20339;49.754;20.158;2022-08-21T12:44:42;11.30;;;9.60;;
34064;SDS011;20339;49.754;20.158;2022-08-21T12:47:15;17.70;;;11.60;;
34064;SDS011;20339;49.754;20.158;2022-08-21T12:49:54;12.70;;;10.80;;
34064;SDS011;20339;49.754;20.158;2022-08-21T12:52:29;12.60;;;10.40;;
34064;SDS011;20339;49.754;20.158;2022-08-21T12:55:01;14.30;;;11.30;;
34064;SDS011;20339;49.754;20.158;2022-08-21T12:57:31;12.30;;;10.30;;
34064;SDS011;20339;49.754;20.158;2022-08-21T13:00:05;13.80;;;9.10;;
34064;SDS011;20339;49.754;20.158;2022-08-21T13:02:38;11.90;;;9.90;;
34064;SDS011;20339;49.754;20.158;2022-08-21T13:05:14;13.60;;;10.60;;
34064;SDS011;20339;49.754;20.158;2022-08-21T13:07:51;10.10;;;8.40;;
34064;SDS011;20339;49.754;20.158;2022-08-21T13:10:22;11.70;;;9.20;;
34064;SDS011;20339;49.754;20.158;2022-08-21T13:12:54;11.70;;;9.10;;
34064;SDS011;20339;49.754;20.158;2022-08-21T13:15:26;12.00;;;9.00;;
34064;SDS011;20339;49.754;20.158;2022-08-21T13:17:59;9.40;;;7.80;;
34064;SDS011;20339;49.754;20.158;2022-08-21T13:20:29;12.50;;;8.20;;
34064;SDS011;20339;49.754;20.158;2022-08-21T13:23:01;11.10;;;7.80;;
34064;SDS011;20339;49.754;20.158;2022-08-21T13:25:48;10.40;;;7.50;;
34064;SDS011;20339;49.754;20.158;2022-08-21T13:28:17;10.80;;;8.00;;
34064;SDS011;20339;49.754;20.158;2022-08-21T13:30:49;10.00;;;7.40;;
34064;SDS011;20339;49.754;20.158;2022-08-21T13:33:21;8.80;;;7.50;;
34064;SDS011;20339;49.754;20.158;2022-08-21T13:35:59;8.10;;;6.70;;
34064;SDS011;20339;49.754;20.158;2022-08-21T13:38:32;9.90;;;8.20;;
34064;SDS011;20339;49.754;20.158;2022-08-21T13:41:05;10.80;;;8.10;;
34064;SDS011;20339;49.754;20.158;2022-08-21T13:43:44;8.10;;;7.10;;
34064;SDS011;20339;49.754;20.158;2022-08-21T13:46:16;11.70;;;7.70;;
34064;SDS011;20339;49.754;20.158;2022-08-21T13:48:49;10.50;;;7.10;;
34064;SDS011;20339;49.754;20.158;2022-08-21T13:51:21;10.20;;;7.20;;
34064;SDS011;20339;49.754;20.158;2022-08-21T13:53:52;7.90;;;6.70;;
34064;SDS011;20339;49.754;20.158;2022-08-21T13:56:23;11.40;;;7.70;;
34064;SDS011;20339;49.754;20.158;2022-08-21T13:58:54;9.10;;;7.10;;
34064;SDS011;20339;49.754;20.158;2022-08-21T14:01:26;7.40;;;6.70;;
34064;SDS011;20339;49.754;20.158;2022-08-21T14:03:59;7.70;;;6.30;;
34064;SDS011;20339;49.754;20.158;2022-08-21T14:06:36;7.80;;;6.10;;
34064;SDS011;20339;49.754;20.158;2022-08-21T14:09:09;8.50;;;5.70;;
34064;SDS011;20339;49.754;20.158;2022-08-21T14:11:39;7.80;;;6.00;;
34064;SDS011;20339;49.754;20.158;2022-08-21T14:14:14;7.50;;;6.20;;
34064;SDS011;20339;49.754;20.158;2022-08-21T14:16:53;10.00;;;6.00;;
34064;SDS011;20339;49.754;20.158;2022-08-21T14:19:24;7.90;;;6.00;;
34064;SDS011;20339;49.754;20.158;2022-08-21T14:21:55;7.70;;;6.10;;
34064;SDS011;20339;49.754;20.158;2022-08-21T14:24:28;7.00;;;5.80;;
34064;SDS011;20339;49.754;20.158;2022-08-21T14:27:02;6.60;;;5.30;;
34064;SDS011;20339;49.754;20.158;2022-08-21T14:29:34;6.80;;;5.60;;
34064;SDS011;20339;49.754;20.158;2022-08-21T14:32:09;5.20;;;4.70;;
34064;SDS011;20339;49.754;20.158;2022-08-21T14:34:41;6.80;;;5.10;;
34064;SDS011;20339;49.754;20.158;2022-08-21T14:37:12;15.50;;;10.00;;
34064;SDS011;20339;49.754;20.158;2022-08-21T14:39:42;11.70;;;8.60;;
34064;SDS011;20339;49.754;20.158;2022-08-21T14:42:11;8.30;;;6.10;;
34064;SDS011;20339;49.754;20.158;2022-08-21T14:44:40;5.90;;;5.10;;
34064;SDS011;20339;49.754;20.158;2022-08-21T14:47:09;8.00;;;5.50;;
34064;SDS011;20339;49.754;20.158;2022-08-21T14:49:39;7.50;;;5.50;;
34064;SDS011;20339;49.754;20.158;2022-08-21T14:52:12;5.80;;;5.00;;
34064;SDS011;20339;49.754;20.158;2022-08-21T14:54:42;6.20;;;5.00;;
34064;SDS011;20339;49.754;20.158;2022-08-21T14:57:13;8.00;;;5.40;;
34064;SDS011;20339;49.754;20.158;2022-08-21T14:59:43;6.90;;;6.20;;
34064;SDS011;20339;49.754;20.158;2022-08-21T15:02:12;5.90;;;5.30;;
34064;SDS011;20339;49.754;20.158;2022-08-21T15:04:41;6.00;;;5.40;;